sensor_id;sensor_type;location;lat;lon;timestamp;P1;durP1;ratioP1;P2;durP2;ratioP2
60372;SDS011;46216;52.220;5.134;2023-04-22T00:01:19;16.02;;;11.07;;
60372;SDS011;46216;52.220;5.134;2023-04-22T00:03:45;15.77;;;11.70;;
60372;SDS011;46216;52.220;5.134;2023-04-22T00:06:10;14.45;;;11.13;;
60372;SDS011;46216;52.220;5.134;2023-04-22T00:08:36;15.00;;;10.85;;
60372;SDS011;46216;52.220;5.134;2023-04-22T00:11:01;14.35;;;11.80;;
60372;SDS011;46216;52.220;5.134;2023-04-22T00:13:27;14.60;;;11.35;;
60372;SDS011;46216;52.220;5.134;2023-04-22T00:15:53;15.65;;;11.88;;
60372;SDS011;46216;52.220;5.134;2023-04-22T00:18:18;14.25;;;11.18;;
60372;SDS011;46216;52.220;5.134;2023-04-22T00:20:43;14.52;;;11.80;;
60372;SDS011;46216;52.220;5.134;2023-04-22T00:23:10;15.93;;;11.90;;
60372;SDS011;46216;52.220;5.134;2023-04-22T00:25:36;16.77;;;11.35;;
60372;SDS011;46216;52.220;5.134;2023-04-22T00:28:01;15.32;;;11.73;;
60372;SDS011;46216;52.220;5.134;2023-04-22T00:30:26;18.15;;;12.52;;
60372;SDS011;46216;52.220;5.134;2023-04-22T00:32:52;15.23;;;12.48;;
60372;SDS011;46216;52.220;5.134;2023-04-22T00:35:17;15.55;;;12.15;;
60372;SDS011;46216;52.220;5.134;2023-04-22T00:37:42;16.58;;;12.73;;
60372;SDS011;46216;52.220;5.134;2023-04-22T00:40:08;18.92;;;12.27;;
60372;SDS011;46216;52.220;5.134;2023-04-22T00:42:34;17.77;;;12.35;;
60372;SDS011;46216;52.220;5.134;2023-04-22T00:45:01;17.50;;;12.02;;
60372;SDS011;46216;52.220;5.134;2023-04-22T00:47:26;15.13;;;12.20;;
60372;SDS011;46216;52.220;5.134;2023-04-22T00:49:52;16.73;;;12.77;;
60372;SDS011;46216;52.220;5.134;2023-04-22T00:52:18;14.95;;;12.50;;
60372;SDS011;46216;52.220;5.134;2023-04-22T00:54:44;17.75;;;13.05;;
60372;SDS011;46216;52.220;5.134;2023-04-22T00:57:10;18.63;;;12.43;;
60372;SDS011;46216;52.220;5.134;2023-04-22T00:59:36;16.23;;;12.82;;
60372;SDS011;46216;52.220;5.134;2023-04-22T01:02:02;16.85;;;13.57;;
60372;SDS011;46216;52.220;5.134;2023-04-22T01:04:28;16.30;;;13.00;;
60372;SDS011;46216;52.220;5.134;2023-04-22T01:06:54;16.67;;;12.68;;
60372;SDS011;46216;52.220;5.134;2023-04-22T01:09:19;19.95;;;13.93;;
60372;SDS011;46216;52.220;5.134;2023-04-22T01:11:45;18.67;;;14.32;;
60372;SDS011;46216;52.220;5.134;2023-04-22T01:14:11;16.65;;;13.95;;
60372;SDS011;46216;52.220;5.134;2023-04-22T01:16:36;18.67;;;14.73;;
60372;SDS011;46216;52.220;5.134;2023-04-22T01:19:03;19.20;;;14.50;;
60372;SDS011;46216;52.220;5.134;2023-04-22T01:21:29;18.83;;;14.80;;
60372;SDS011;46216;52.220;5.134;2023-04-22T01:23:57;19.92;;;15.27;;
60372;SDS011;46216;52.220;5.134;2023-04-22T01:26:23;20.63;;;15.65;;
60372;SDS011;46216;52.220;5.134;2023-04-22T01:28:49;20.63;;;15.85;;
60372;SDS011;46216;52.220;5.134;2023-04-22T01:31:14;20.60;;;15.73;;
60372;SDS011;46216;52.220;5.134;2023-04-22T01:33:40;20.65;;;16.23;;
60372;SDS011;46216;52.220;5.134;2023-04-22T01:36:06;20.67;;;16.40;;
60372;SDS011;46216;52.220;5.134;2023-04-22T01:38:31;24.23;;;16.83;;
60372;SDS011;46216;52.220;5.134;2023-04-22T01:40:58;20.88;;;15.60;;
60372;SDS011;46216;52.220;5.134;2023-04-22T01:43:25;20.88;;;15.60;;
60372;SDS011;46216;52.220;5.134;2023-04-22T01:45:50;20.70;;;15.45;;
60372;SDS011;46216;52.220;5.134;2023-04-22T01:48:16;20.70;;;14.95;;
60372;SDS011;46216;52.220;5.134;2023-04-22T01:50:41;19.92;;;15.20;;
60372;SDS011;46216;52.220;5.134;2023-04-22T01:53:06;20.88;;;16.58;;
60372;SDS011;46216;52.220;5.134;2023-04-22T01:55:33;20.60;;;15.23;;
60372;SDS011;46216;52.220;5.134;2023-04-22T01:58:00;18.52;;;14.70;;
60372;SDS011;46216;52.220;5.134;2023-04-22T02:00:25;16.15;;;13.00;;
60372;SDS011;46216;52.220;5.134;2023-04-22T02:02:51;16.63;;;12.75;;
60372;SDS011;46216;52.220;5.134;2023-04-22T02:05:16;89.00;;;12.82;;
60372;SDS011;46216;52.220;5.134;2023-04-22T02:07:42;89.35;;;11.65;;
60372;SDS011;46216;52.220;5.134;2023-04-22T02:10:07;122.55;;;13.35;;
60372;SDS011;46216;52.220;5.134;2023-04-22T02:12:33;160.38;;;12.82;;
60372;SDS011;46216;52.220;5.134;2023-04-22T02:14:59;109.22;;;12.48;;
60372;SDS011;46216;52.220;5.134;2023-04-22T02:17:27;41.90;;;11.68;;
60372;SDS011;46216;52.220;5.134;2023-04-22T02:19:57;68.25;;;11.95;;
60372;SDS011;46216;52.220;5.134;2023-04-22T02:22:22;48.88;;;12.60;;
60372;SDS011;46216;52.220;5.134;2023-04-22T02:24:48;38.63;;;12.75;;
60372;SDS011;46216;52.220;5.134;2023-04-22T02:27:13;37.90;;;13.43;;
60372;SDS011;46216;52.220;5.134;2023-04-22T02:29:38;27.33;;;13.13;;
60372;SDS011;46216;52.220;5.134;2023-04-22T02:32:04;18.38;;;12.73;;
60372;SDS011;46216;52.220;5.134;2023-04-22T02:34:29;17.23;;;12.00;;
60372;SDS011;46216;52.220;5.134;2023-04-22T02:36:54;16.48;;;12.82;;
60372;SDS011;46216;52.220;5.134;2023-04-22T02:39:20;18.02;;;12.77;;
60372;SDS011;46216;52.220;5.134;2023-04-22T02:41:45;21.45;;;14.02;;
60372;SDS011;46216;52.220;5.134;2023-04-22T02:44:11;19.35;;;13.63;;
60372;SDS011;46216;52.220;5.134;2023-04-22T02:46:36;19.02;;;13.50;;
60372;SDS011;46216;52.220;5.134;2023-04-22T02:49:01;21.88;;;14.00;;
60372;SDS011;46216;52.220;5.134;2023-04-22T02:51:26;18.55;;;14.00;;
60372;SDS011;46216;52.220;5.134;2023-04-22T02:53:52;18.85;;;13.60;;
60372;SDS011;46216;52.220;5.134;2023-04-22T02:56:17;18.42;;;13.10;;
60372;SDS011;46216;52.220;5.134;2023-04-22T02:58:44;17.02;;;13.10;;
60372;SDS011;46216;52.220;5.134;2023-04-22T03:01:09;19.00;;;13.35;;
60372;SDS011;46216;52.220;5.134;2023-04-22T03:03:35;19.52;;;14.40;;
60372;SDS011;46216;52.220;5.134;2023-04-22T03:06:01;20.45;;;14.52;;
60372;SDS011;46216;52.220;5.134;2023-04-22T03:08:26;19.90;;;14.27;;
60372;SDS011;46216;52.220;5.134;2023-04-22T03:10:51;21.50;;;13.70;;
60372;SDS011;46216;52.220;5.134;2023-04-22T03:13:16;23.83;;;15.07;;
60372;SDS011;46216;52.220;5.134;2023-04-22T03:15:42;23.67;;;15.52;;
60372;SDS011;46216;52.220;5.134;2023-04-22T03:18:07;23.67;;;15.43;;
60372;SDS011;46216;52.220;5.134;2023-04-22T03:20:33;26.45;;;15.35;;
60372;SDS011;46216;52.220;5.134;2023-04-22T03:22:59;23.67;;;15.45;;
60372;SDS011;46216;52.220;5.134;2023-04-22T03:25:24;23.90;;;15.18;;
60372;SDS011;46216;52.220;5.134;2023-04-22T03:27:50;22.88;;;14.98;;
60372;SDS011;46216;52.220;5.134;2023-04-22T03:30:15;27.85;;;15.98;;
60372;SDS011;46216;52.220;5.134;2023-04-22T03:32:40;27.27;;;16.48;;
60372;SDS011;46216;52.220;5.134;2023-04-22T03:35:06;27.27;;;15.63;;
60372;SDS011;46216;52.220;5.134;2023-04-22T03:37:31;24.73;;;15.35;;
60372;SDS011;46216;52.220;5.134;2023-04-22T03:39:56;26.98;;;15.18;;
60372;SDS011;46216;52.220;5.134;2023-04-22T03:42:22;22.48;;;15.13;;
60372;SDS011;46216;52.220;5.134;2023-04-22T03:44:47;23.33;;;14.98;;
60372;SDS011;46216;52.220;5.134;2023-04-22T03:47:12;26.58;;;16.30;;
60372;SDS011;46216;52.220;5.134;2023-04-22T03:49:38;23.55;;;15.98;;
60372;SDS011;46216;52.220;5.134;2023-04-22T03:52:03;24.10;;;15.77;;
60372;SDS011;46216;52.220;5.134;2023-04-22T03:54:28;26.10;;;15.98;;
60372;SDS011;46216;52.220;5.134;2023-04-22T03:56:54;24.35;;;16.60;;
60372;SDS011;46216;52.220;5.134;2023-04-22T03:59:19;27.15;;;16.88;;
60372;SDS011;46216;52.220;5.134;2023-04-22T04:01:45;27.02;;;16.63;;
60372;SDS011;46216;52.220;5.134;2023-04-22T04:04:11;27.17;;;17.00;;
60372;SDS011;46216;52.220;5.134;2023-04-22T04:06:36;24.55;;;16.95;;
60372;SDS011;46216;52.220;5.134;2023-04-22T04:09:01;27.17;;;16.40;;
60372;SDS011;46216;52.220;5.134;2023-04-22T04:11:27;26.92;;;17.67;;
60372;SDS011;46216;52.220;5.134;2023-04-22T04:13:53;30.58;;;18.38;;
60372;SDS011;46216;52.220;5.134;2023-04-22T04:16:18;31.52;;;18.27;;
60372;SDS011;46216;52.220;5.134;2023-04-22T04:18:44;25.85;;;16.88;;
60372;SDS011;46216;52.220;5.134;2023-04-22T04:21:09;32.47;;;19.33;;
60372;SDS011;46216;52.220;5.134;2023-04-22T04:23:35;30.90;;;18.35;;
60372;SDS011;46216;52.220;5.134;2023-04-22T04:26:00;32.75;;;18.98;;
60372;SDS011;46216;52.220;5.134;2023-04-22T04:28:27;34.78;;;20.10;;
60372;SDS011;46216;52.220;5.134;2023-04-22T04:30:56;32.20;;;19.00;;
60372;SDS011;46216;52.220;5.134;2023-04-22T04:33:21;34.80;;;20.23;;
60372;SDS011;46216;52.220;5.134;2023-04-22T04:35:47;35.72;;;20.48;;
60372;SDS011;46216;52.220;5.134;2023-04-22T04:38:12;38.63;;;20.45;;
60372;SDS011;46216;52.220;5.134;2023-04-22T04:40:38;38.17;;;19.80;;
60372;SDS011;46216;52.220;5.134;2023-04-22T04:43:03;37.78;;;21.23;;
60372;SDS011;46216;52.220;5.134;2023-04-22T04:45:32;35.67;;;21.10;;
60372;SDS011;46216;52.220;5.134;2023-04-22T04:48:00;37.88;;;20.50;;
60372;SDS011;46216;52.220;5.134;2023-04-22T04:50:26;40.00;;;21.67;;
60372;SDS011;46216;52.220;5.134;2023-04-22T04:52:52;32.90;;;20.70;;
60372;SDS011;46216;52.220;5.134;2023-04-22T04:55:17;36.35;;;21.52;;
60372;SDS011;46216;52.220;5.134;2023-04-22T04:57:43;32.38;;;20.20;;
60372;SDS011;46216;52.220;5.134;2023-04-22T05:00:09;38.05;;;21.70;;
60372;SDS011;46216;52.220;5.134;2023-04-22T05:02:35;35.85;;;20.52;;
60372;SDS011;46216;52.220;5.134;2023-04-22T05:05:01;36.38;;;20.48;;
60372;SDS011;46216;52.220;5.134;2023-04-22T05:07:26;37.25;;;21.35;;
60372;SDS011;46216;52.220;5.134;2023-04-22T05:09:52;33.97;;;21.13;;
60372;SDS011;46216;52.220;5.134;2023-04-22T05:12:17;36.97;;;21.40;;
60372;SDS011;46216;52.220;5.134;2023-04-22T05:14:43;35.75;;;20.83;;
60372;SDS011;46216;52.220;5.134;2023-04-22T05:17:08;36.90;;;21.67;;
60372;SDS011;46216;52.220;5.134;2023-04-22T05:19:34;40.90;;;21.90;;
60372;SDS011;46216;52.220;5.134;2023-04-22T05:21:59;38.65;;;22.33;;
60372;SDS011;46216;52.220;5.134;2023-04-22T05:24:25;36.30;;;21.80;;
60372;SDS011;46216;52.220;5.134;2023-04-22T05:26:50;37.63;;;22.33;;
60372;SDS011;46216;52.220;5.134;2023-04-22T05:29:15;38.95;;;23.13;;
60372;SDS011;46216;52.220;5.134;2023-04-22T05:31:41;40.95;;;22.33;;
60372;SDS011;46216;52.220;5.134;2023-04-22T05:34:06;41.17;;;23.40;;
60372;SDS011;46216;52.220;5.134;2023-04-22T05:36:32;46.13;;;24.02;;
60372;SDS011;46216;52.220;5.134;2023-04-22T05:38:57;42.45;;;23.90;;
60372;SDS011;46216;52.220;5.134;2023-04-22T05:41:22;42.42;;;24.05;;
60372;SDS011;46216;52.220;5.134;2023-04-22T05:43:48;41.42;;;24.13;;
60372;SDS011;46216;52.220;5.134;2023-04-22T05:46:14;42.67;;;24.80;;
60372;SDS011;46216;52.220;5.134;2023-04-22T05:48:39;42.92;;;24.35;;
60372;SDS011;46216;52.220;5.134;2023-04-22T05:51:04;44.90;;;25.48;;
60372;SDS011;46216;52.220;5.134;2023-04-22T05:53:30;44.55;;;24.23;;
60372;SDS011;46216;52.220;5.134;2023-04-22T05:55:55;46.10;;;26.27;;
60372;SDS011;46216;52.220;5.134;2023-04-22T05:58:20;44.35;;;25.55;;
60372;SDS011;46216;52.220;5.134;2023-04-22T06:00:46;40.90;;;25.23;;
60372;SDS011;46216;52.220;5.134;2023-04-22T06:03:11;42.40;;;25.50;;
60372;SDS011;46216;52.220;5.134;2023-04-22T06:05:36;47.38;;;26.30;;
60372;SDS011;46216;52.220;5.134;2023-04-22T06:08:01;44.53;;;25.83;;
60372;SDS011;46216;52.220;5.134;2023-04-22T06:10:27;41.60;;;26.23;;
60372;SDS011;46216;52.220;5.134;2023-04-22T06:12:52;43.92;;;25.70;;
60372;SDS011;46216;52.220;5.134;2023-04-22T06:15:17;47.50;;;26.52;;
60372;SDS011;46216;52.220;5.134;2023-04-22T06:17:43;44.95;;;27.15;;
60372;SDS011;46216;52.220;5.134;2023-04-22T06:20:09;44.30;;;26.98;;
60372;SDS011;46216;52.220;5.134;2023-04-22T06:22:35;47.47;;;27.45;;
60372;SDS011;46216;52.220;5.134;2023-04-22T06:25:01;45.63;;;27.05;;
60372;SDS011;46216;52.220;5.134;2023-04-22T06:27:27;44.97;;;27.48;;
60372;SDS011;46216;52.220;5.134;2023-04-22T06:29:52;47.92;;;28.90;;
60372;SDS011;46216;52.220;5.134;2023-04-22T06:32:17;51.55;;;30.23;;
60372;SDS011;46216;52.220;5.134;2023-04-22T06:34:43;53.22;;;28.88;;
60372;SDS011;46216;52.220;5.134;2023-04-22T06:37:08;54.80;;;30.58;;
60372;SDS011;46216;52.220;5.134;2023-04-22T06:39:33;50.85;;;30.00;;
60372;SDS011;46216;52.220;5.134;2023-04-22T06:41:58;54.40;;;31.23;;
60372;SDS011;46216;52.220;5.134;2023-04-22T06:44:25;53.83;;;30.77;;
60372;SDS011;46216;52.220;5.134;2023-04-22T06:46:51;53.35;;;30.50;;
60372;SDS011;46216;52.220;5.134;2023-04-22T06:49:16;48.75;;;29.70;;
60372;SDS011;46216;52.220;5.134;2023-04-22T06:51:41;52.92;;;31.80;;
60372;SDS011;46216;52.220;5.134;2023-04-22T06:54:07;52.78;;;31.10;;
60372;SDS011;46216;52.220;5.134;2023-04-22T06:56:32;49.50;;;30.85;;
60372;SDS011;46216;52.220;5.134;2023-04-22T06:58:57;46.75;;;29.55;;
60372;SDS011;46216;52.220;5.134;2023-04-22T07:01:22;46.67;;;29.23;;
60372;SDS011;46216;52.220;5.134;2023-04-22T07:03:48;47.45;;;30.15;;
60372;SDS011;46216;52.220;5.134;2023-04-22T07:06:13;45.88;;;30.27;;
60372;SDS011;46216;52.220;5.134;2023-04-22T07:08:39;43.28;;;28.83;;
60372;SDS011;46216;52.220;5.134;2023-04-22T07:11:04;42.33;;;30.00;;
60372;SDS011;46216;52.220;5.134;2023-04-22T07:13:30;38.05;;;26.38;;
60372;SDS011;46216;52.220;5.134;2023-04-22T07:15:58;38.03;;;26.85;;
60372;SDS011;46216;52.220;5.134;2023-04-22T07:18:24;37.83;;;27.45;;
60372;SDS011;46216;52.220;5.134;2023-04-22T07:20:50;37.30;;;27.48;;
60372;SDS011;46216;52.220;5.134;2023-04-22T07:23:15;36.40;;;27.80;;
60372;SDS011;46216;52.220;5.134;2023-04-22T07:25:40;36.40;;;27.00;;
60372;SDS011;46216;52.220;5.134;2023-04-22T07:28:05;33.85;;;25.77;;
60372;SDS011;46216;52.220;5.134;2023-04-22T07:30:31;31.52;;;24.08;;
60372;SDS011;46216;52.220;5.134;2023-04-22T07:32:56;30.90;;;23.88;;
60372;SDS011;46216;52.220;5.134;2023-04-22T07:35:21;27.60;;;23.05;;
60372;SDS011;46216;52.220;5.134;2023-04-22T07:37:47;31.23;;;23.92;;
60372;SDS011;46216;52.220;5.134;2023-04-22T07:40:12;28.85;;;23.73;;
60372;SDS011;46216;52.220;5.134;2023-04-22T07:42:38;25.23;;;21.35;;
60372;SDS011;46216;52.220;5.134;2023-04-22T07:45:04;24.27;;;20.35;;
60372;SDS011;46216;52.220;5.134;2023-04-22T07:47:33;27.58;;;21.38;;
60372;SDS011;46216;52.220;5.134;2023-04-22T07:49:59;23.65;;;20.27;;
60372;SDS011;46216;52.220;5.134;2023-04-22T07:52:24;24.35;;;20.50;;
60372;SDS011;46216;52.220;5.134;2023-04-22T07:54:50;23.77;;;20.10;;
60372;SDS011;46216;52.220;5.134;2023-04-22T07:57:15;20.52;;;17.83;;
60372;SDS011;46216;52.220;5.134;2023-04-22T07:59:40;20.00;;;17.90;;
60372;SDS011;46216;52.220;5.134;2023-04-22T08:02:06;19.13;;;17.13;;
60372;SDS011;46216;52.220;5.134;2023-04-22T08:04:31;19.08;;;16.48;;
60372;SDS011;46216;52.220;5.134;2023-04-22T08:06:56;17.08;;;15.32;;
60372;SDS011;46216;52.220;5.134;2023-04-22T08:09:22;16.63;;;14.82;;
60372;SDS011;46216;52.220;5.134;2023-04-22T08:11:47;17.73;;;15.35;;
60372;SDS011;46216;52.220;5.134;2023-04-22T08:14:12;17.17;;;15.38;;
60372;SDS011;46216;52.220;5.134;2023-04-22T08:16:38;17.27;;;15.30;;
60372;SDS011;46216;52.220;5.134;2023-04-22T08:19:03;18.20;;;15.45;;
60372;SDS011;46216;52.220;5.134;2023-04-22T08:21:29;18.02;;;16.13;;
60372;SDS011;46216;52.220;5.134;2023-04-22T08:23:55;18.10;;;16.02;;
60372;SDS011;46216;52.220;5.134;2023-04-22T08:26:21;18.92;;;16.52;;
60372;SDS011;46216;52.220;5.134;2023-04-22T08:28:46;17.98;;;16.00;;
60372;SDS011;46216;52.220;5.134;2023-04-22T08:31:11;16.83;;;15.07;;
60372;SDS011;46216;52.220;5.134;2023-04-22T08:33:39;16.33;;;14.40;;
60372;SDS011;46216;52.220;5.134;2023-04-22T08:36:06;15.43;;;13.93;;
60372;SDS011;46216;52.220;5.134;2023-04-22T08:38:32;14.63;;;13.10;;
60372;SDS011;46216;52.220;5.134;2023-04-22T08:40:57;14.00;;;12.52;;
60372;SDS011;46216;52.220;5.134;2023-04-22T08:43:24;13.60;;;12.20;;
60372;SDS011;46216;52.220;5.134;2023-04-22T08:45:50;15.23;;;12.45;;
60372;SDS011;46216;52.220;5.134;2023-04-22T08:48:16;13.00;;;11.63;;
60372;SDS011;46216;52.220;5.134;2023-04-22T08:50:43;11.70;;;10.38;;
60372;SDS011;46216;52.220;5.134;2023-04-22T08:53:08;10.45;;;9.45;;
60372;SDS011;46216;52.220;5.134;2023-04-22T08:55:33;11.02;;;9.93;;
60372;SDS011;46216;52.220;5.134;2023-04-22T08:58:00;10.88;;;9.77;;
60372;SDS011;46216;52.220;5.134;2023-04-22T09:00:28;11.95;;;9.73;;
60372;SDS011;46216;52.220;5.134;2023-04-22T09:02:54;11.23;;;10.13;;
60372;SDS011;46216;52.220;5.134;2023-04-22T09:05:22;10.45;;;9.35;;
60372;SDS011;46216;52.220;5.134;2023-04-22T09:07:49;10.70;;;9.70;;
60372;SDS011;46216;52.220;5.134;2023-04-22T09:10:15;11.52;;;10.35;;
60372;SDS011;46216;52.220;5.134;2023-04-22T09:12:41;11.18;;;10.07;;
60372;SDS011;46216;52.220;5.134;2023-04-22T09:15:06;11.75;;;10.65;;
60372;SDS011;46216;52.220;5.134;2023-04-22T09:17:34;11.60;;;9.57;;
60372;SDS011;46216;52.220;5.134;2023-04-22T09:20:02;10.85;;;9.85;;
60372;SDS011;46216;52.220;5.134;2023-04-22T09:22:38;12.10;;;10.90;;
60372;SDS011;46216;52.220;5.134;2023-04-22T09:25:05;11.43;;;10.15;;
60372;SDS011;46216;52.220;5.134;2023-04-22T09:27:39;11.75;;;10.27;;
60372;SDS011;46216;52.220;5.134;2023-04-22T09:30:07;11.93;;;10.73;;
60372;SDS011;46216;52.220;5.134;2023-04-22T09:32:33;12.23;;;10.95;;
60372;SDS011;46216;52.220;5.134;2023-04-22T09:34:59;11.95;;;10.85;;
60372;SDS011;46216;52.220;5.134;2023-04-22T09:37:24;12.57;;;11.07;;
60372;SDS011;46216;52.220;5.134;2023-04-22T09:39:50;11.65;;;10.45;;
60372;SDS011;46216;52.220;5.134;2023-04-22T09:42:16;11.93;;;10.73;;
60372;SDS011;46216;52.220;5.134;2023-04-22T09:44:43;12.98;;;11.38;;
60372;SDS011;46216;52.220;5.134;2023-04-22T09:47:12;11.07;;;9.98;;
60372;SDS011;46216;52.220;5.134;2023-04-22T09:49:38;11.90;;;10.70;;
60372;SDS011;46216;52.220;5.134;2023-04-22T09:52:04;11.93;;;10.75;;
60372;SDS011;46216;52.220;5.134;2023-04-22T09:54:29;12.07;;;10.93;;
60372;SDS011;46216;52.220;5.134;2023-04-22T09:56:55;11.68;;;10.45;;
60372;SDS011;46216;52.220;5.134;2023-04-22T09:59:21;12.00;;;10.90;;
60372;SDS011;46216;52.220;5.134;2023-04-22T10:01:52;11.63;;;10.52;;
60372;SDS011;46216;52.220;5.134;2023-04-22T10:04:20;12.00;;;10.80;;
60372;SDS011;46216;52.220;5.134;2023-04-22T10:06:47;10.77;;;9.77;;
60372;SDS011;46216;52.220;5.134;2023-04-22T10:09:13;11.25;;;10.05;;
60372;SDS011;46216;52.220;5.134;2023-04-22T10:11:41;11.15;;;10.00;;
60372;SDS011;46216;52.220;5.134;2023-04-22T10:14:07;13.48;;;9.68;;
60372;SDS011;46216;52.220;5.134;2023-04-22T10:16:35;11.10;;;9.90;;
60372;SDS011;46216;52.220;5.134;2023-04-22T10:19:03;11.15;;;10.10;;
60372;SDS011;46216;52.220;5.134;2023-04-22T10:21:31;11.35;;;10.35;;
60372;SDS011;46216;52.220;5.134;2023-04-22T10:23:58;12.43;;;11.23;;
60372;SDS011;46216;52.220;5.134;2023-04-22T10:26:41;12.27;;;10.98;;
60372;SDS011;46216;52.220;5.134;2023-04-22T10:29:12;11.85;;;10.65;;
60372;SDS011;46216;52.220;5.134;2023-04-22T10:31:41;12.07;;;10.88;;
60372;SDS011;46216;52.220;5.134;2023-04-22T10:34:12;12.70;;;11.38;;
60372;SDS011;46216;52.220;5.134;2023-04-22T10:36:54;11.98;;;10.80;;
60372;SDS011;46216;52.220;5.134;2023-04-22T10:39:22;11.35;;;10.35;;
60372;SDS011;46216;52.220;5.134;2023-04-22T10:41:55;10.73;;;9.68;;
60372;SDS011;46216;52.220;5.134;2023-04-22T10:44:43;11.70;;;10.20;;
60372;SDS011;46216;52.220;5.134;2023-04-22T10:47:09;11.57;;;10.40;;
60372;SDS011;46216;52.220;5.134;2023-04-22T10:49:34;11.95;;;10.75;;
60372;SDS011;46216;52.220;5.134;2023-04-22T10:52:00;11.48;;;10.32;;
60372;SDS011;46216;52.220;5.134;2023-04-22T10:57:06;12.10;;;10.95;;
60372;SDS011;46216;52.220;5.134;2023-04-22T10:59:46;11.77;;;10.68;;
60372;SDS011;46216;52.220;5.134;2023-04-22T11:02:12;11.35;;;10.18;;
60372;SDS011;46216;52.220;5.134;2023-04-22T11:04:38;12.18;;;10.98;;
60372;SDS011;46216;52.220;5.134;2023-04-22T11:07:14;12.30;;;11.20;;
60372;SDS011;46216;52.220;5.134;2023-04-22T11:09:45;12.05;;;10.90;;
60372;SDS011;46216;52.220;5.134;2023-04-22T11:15:10;11.95;;;10.52;;
60372;SDS011;46216;52.220;5.134;2023-04-22T11:17:38;14.52;;;11.18;;
60372;SDS011;46216;52.220;5.134;2023-04-22T11:20:06;12.45;;;11.25;;
60372;SDS011;46216;52.220;5.134;2023-04-22T11:22:36;11.65;;;10.45;;
60372;SDS011;46216;52.220;5.134;2023-04-22T11:25:03;12.25;;;11.05;;
60372;SDS011;46216;52.220;5.134;2023-04-22T11:27:29;13.10;;;11.77;;
60372;SDS011;46216;52.220;5.134;2023-04-22T11:30:04;12.57;;;11.25;;
60372;SDS011;46216;52.220;5.134;2023-04-22T11:32:35;12.98;;;11.65;;
60372;SDS011;46216;52.220;5.134;2023-04-22T11:35:03;12.75;;;11.45;;
60372;SDS011;46216;52.220;5.134;2023-04-22T11:37:30;12.82;;;11.60;;
60372;SDS011;46216;52.220;5.134;2023-04-22T11:39:58;13.43;;;12.13;;
60372;SDS011;46216;52.220;5.134;2023-04-22T11:42:25;13.48;;;12.18;;
60372;SDS011;46216;52.220;5.134;2023-04-22T11:44:50;13.32;;;11.93;;
60372;SDS011;46216;52.220;5.134;2023-04-22T11:47:16;14.07;;;12.68;;
60372;SDS011;46216;52.220;5.134;2023-04-22T11:49:59;14.38;;;12.98;;
60372;SDS011;46216;52.220;5.134;2023-04-22T11:55:15;16.55;;;14.82;;
60372;SDS011;46216;52.220;5.134;2023-04-22T11:57:53;16.98;;;14.95;;
60372;SDS011;46216;52.220;5.134;2023-04-22T12:00:20;17.67;;;15.88;;
60372;SDS011;46216;52.220;5.134;2023-04-22T12:02:55;18.25;;;16.25;;
60372;SDS011;46216;52.220;5.134;2023-04-22T12:05:30;19.75;;;17.67;;
60372;SDS011;46216;52.220;5.134;2023-04-22T12:08:01;22.08;;;17.77;;
60372;SDS011;46216;52.220;5.134;2023-04-22T12:10:50;20.65;;;17.63;;
60372;SDS011;46216;52.220;5.134;2023-04-22T12:13:21;21.60;;;17.48;;
60372;SDS011;46216;52.220;5.134;2023-04-22T12:15:53;20.23;;;17.50;;
60372;SDS011;46216;52.220;5.134;2023-04-22T12:18:30;21.48;;;18.33;;
60372;SDS011;46216;52.220;5.134;2023-04-22T12:21:00;21.08;;;18.80;;
60372;SDS011;46216;52.220;5.134;2023-04-22T12:23:45;21.67;;;19.45;;
60372;SDS011;46216;52.220;5.134;2023-04-22T12:26:19;22.15;;;18.52;;
60372;SDS011;46216;52.220;5.134;2023-04-22T12:28:46;21.48;;;19.10;;
60372;SDS011;46216;52.220;5.134;2023-04-22T12:31:12;22.55;;;19.27;;
60372;SDS011;46216;52.220;5.134;2023-04-22T12:33:38;21.00;;;18.63;;
60372;SDS011;46216;52.220;5.134;2023-04-22T12:36:05;21.80;;;19.20;;
60372;SDS011;46216;52.220;5.134;2023-04-22T12:38:30;22.10;;;19.60;;
60372;SDS011;46216;52.220;5.134;2023-04-22T12:40:57;22.60;;;20.23;;
60372;SDS011;46216;52.220;5.134;2023-04-22T12:43:23;24.75;;;19.67;;
60372;SDS011;46216;52.220;5.134;2023-04-22T12:45:48;21.92;;;19.10;;
60372;SDS011;46216;52.220;5.134;2023-04-22T12:48:14;21.17;;;18.88;;
60372;SDS011;46216;52.220;5.134;2023-04-22T12:50:39;24.83;;;20.20;;
60372;SDS011;46216;52.220;5.134;2023-04-22T12:53:05;23.73;;;20.45;;
60372;SDS011;46216;52.220;5.134;2023-04-22T12:55:30;23.48;;;20.35;;
60372;SDS011;46216;52.220;5.134;2023-04-22T12:57:56;26.02;;;21.38;;
60372;SDS011;46216;52.220;5.134;2023-04-22T13:00:21;27.95;;;22.02;;
60372;SDS011;46216;52.220;5.134;2023-04-22T13:02:48;29.00;;;22.73;;
60372;SDS011;46216;52.220;5.134;2023-04-22T13:05:14;28.73;;;22.95;;
60372;SDS011;46216;52.220;5.134;2023-04-22T13:07:40;28.30;;;22.60;;
60372;SDS011;46216;52.220;5.134;2023-04-22T13:10:06;29.77;;;23.10;;
60372;SDS011;46216;52.220;5.134;2023-04-22T13:12:33;29.98;;;22.63;;
60372;SDS011;46216;52.220;5.134;2023-04-22T13:14:59;26.17;;;22.30;;
60372;SDS011;46216;52.220;5.134;2023-04-22T13:17:25;25.27;;;20.88;;
60372;SDS011;46216;52.220;5.134;2023-04-22T13:19:50;25.92;;;21.13;;
60372;SDS011;46216;52.220;5.134;2023-04-22T13:22:16;24.88;;;21.08;;
60372;SDS011;46216;52.220;5.134;2023-04-22T13:24:42;24.67;;;20.63;;
60372;SDS011;46216;52.220;5.134;2023-04-22T13:27:07;22.17;;;19.13;;
60372;SDS011;46216;52.220;5.134;2023-04-22T13:29:33;24.77;;;19.77;;
60372;SDS011;46216;52.220;5.134;2023-04-22T13:31:58;27.85;;;21.40;;
60372;SDS011;46216;52.220;5.134;2023-04-22T13:34:24;28.60;;;20.92;;
60372;SDS011;46216;52.220;5.134;2023-04-22T13:36:49;27.65;;;21.73;;
60372;SDS011;46216;52.220;5.134;2023-04-22T13:39:15;29.63;;;21.67;;
60372;SDS011;46216;52.220;5.134;2023-04-22T13:41:41;27.23;;;22.17;;
60372;SDS011;46216;52.220;5.134;2023-04-22T13:44:09;30.48;;;23.90;;
60372;SDS011;46216;52.220;5.134;2023-04-22T13:46:35;32.00;;;24.10;;
60372;SDS011;46216;52.220;5.134;2023-04-22T13:49:01;29.38;;;22.70;;
60372;SDS011;46216;52.220;5.134;2023-04-22T13:51:26;29.42;;;22.85;;
60372;SDS011;46216;52.220;5.134;2023-04-22T13:53:51;35.08;;;23.90;;
60372;SDS011;46216;52.220;5.134;2023-04-22T13:56:17;32.45;;;24.55;;
60372;SDS011;46216;52.220;5.134;2023-04-22T13:58:42;33.65;;;24.45;;
60372;SDS011;46216;52.220;5.134;2023-04-22T14:01:07;34.83;;;25.15;;
60372;SDS011;46216;52.220;5.134;2023-04-22T14:03:33;34.90;;;25.55;;
60372;SDS011;46216;52.220;5.134;2023-04-22T14:05:59;35.70;;;25.80;;
60372;SDS011;46216;52.220;5.134;2023-04-22T14:08:25;34.17;;;25.40;;
60372;SDS011;46216;52.220;5.134;2023-04-22T14:10:51;32.88;;;25.08;;
60372;SDS011;46216;52.220;5.134;2023-04-22T14:13:17;34.42;;;26.02;;
60372;SDS011;46216;52.220;5.134;2023-04-22T14:15:43;37.97;;;27.85;;
60372;SDS011;46216;52.220;5.134;2023-04-22T14:18:08;38.55;;;28.23;;
60372;SDS011;46216;52.220;5.134;2023-04-22T14:20:34;40.83;;;28.80;;
60372;SDS011;46216;52.220;5.134;2023-04-22T14:22:59;38.60;;;29.40;;
60372;SDS011;46216;52.220;5.134;2023-04-22T14:25:25;39.22;;;28.17;;